NFTFNSFA

Guest
Details From NFTF - Fua Amotu Intl
To NSFA - Faleolo International
Flight Number -
Tags generated
Created
Modified
Stats Distance 480 nm / 890 km
Max Altitude 27,300 ft / 8,321 m
Waypoints 5
Social Downloads 0
Likes 0
Share VATSIM

Download

Looking for another format? Having issues loading an existing format? Contact us
Advertisement - Login to hide

Notes

Basic altitude profile: - Ascent Rate: 2500ft/min - Ascent Speed: 250kts - Cruise Altitude: 35000ft - Cruise Speed: 420kts - Descent Rate: 1500ft/min - Descent Speed: 250kts Options: - Use NATs: yes - Use PACOTS: yes - Use low airways: yes - Use high airways: yes

Route

NFTF TBU A592 AROXA NSFA

ID Type Via Altitude Latitude Longitude Leg Dist Tot Dist Heading (true) Name
O NFTF APT - 0 ft / 0 m -21.24249˚ -175.14457˚ - 0 nm - Fua Amotu Intl
TBU VOR - 0 ft / 0 m -21.24417˚ -175.14861˚ 0 nm 0 nm 246° / 246° FUA AMOTU VOR-DME
ISDOT FIX A592 (AWY-LO) 27,300 ft / 8,321 m -15.81197˚ -172.80950˚ 352 nm 352 nm 23° / 22° -
AROXA FIX A592 (AWY-LO) 6,300 ft / 1,920 m -14.29572˚ -172.18353˚ 98 nm 450 nm 22° / 22° -
O NSFA APT - 0 ft / 0 m -13.83002˚ -172.00910˚ 29 nm 480 nm 20° / 20° Faleolo International

Altitude Profile

Advertisement - Login to hide

Weather


0- 5 10 15 20 25 30 35+ Temperature / ° C

Clouds and Precipitation
Forecast for 2018-05-27 00:00 UTC. Updated 4 hours ago

Ground ~20,000 ft ~40,000 ft Winds

NFTF

Details ICAO NFTF (TBU)
Name Fua Amotu Intl
Region Fiji and Tonga
Timezone Pacific/Tongatapu (UTC+13.0)
Stats Elevation 126 ft / 38 m (AMSL)
Location -21.242493° -175.144569°
Runways 2
Magnetic Variation 13.685° E

METAR

NFTF 270300Z 14011KT 9999 FEW010 FEW017TCU BKN110 25/20 Q1014

Decode

TAF

TAF NFTF 262324Z 2700/2724 15015KT 9999 SCT015 BKN035 OVC100 PROB40 TEMPO 2718/2724 3000 SHRA BKN012 BKN030 BECMG 2718/2720 08015KT

Decode

Departure Runways

ID Width Length Bearing (true) Bearing (mag) Surface Threshold Offset Overrun Length
11 148 ft / 45 m 8,967 ft / 2,733 m 122.10° 108.42° Asphalt 0 ft / 0 m 194 ft / 59 m
17 194 ft / 59 m 4,960 ft / 1,512 m 182.40° 168.72° Unknown 0 ft / 0 m 0 ft / 0 m
29 148 ft / 45 m 8,967 ft / 2,733 m 302.09° 288.41° Asphalt 0 ft / 0 m 194 ft / 59 m
35 194 ft / 59 m 4,960 ft / 1,512 m 2.40° 348.72° Unknown 0 ft / 0 m 0 ft / 0 m

NSFA

Details ICAO NSFA (APW)
Name Faleolo International
Region American Samoa
Timezone Pacific/Apia (UTC+13.0)
Stats Elevation 58 ft / 18 m (AMSL)
Location -13.830023° -172.009102°
Runways 1
Magnetic Variation 11.674° E

METAR

Not found

TAF

TAF NSFA 262329Z 2700/2724 03012KT 9999 SCT025= TAF YBAS 262307Z 2700/2724 12008KT CAVOK FM271800 35003KT CAVOK

Decode

Destination Runways

ID Width Length Bearing (true) Bearing (mag) Surface Threshold Offset Overrun Length
08 148 ft / 45 m 10,361 ft / 3,158 m 89.30° 77.63° Asphalt 515 ft / 157 m 0 ft / 0 m
26 148 ft / 45 m 10,361 ft / 3,158 m 269.30° 257.63° Asphalt 0 ft / 0 m 102 ft / 31 m

Approach Navaids

Runway Type Ident Frequency Range Bearing (true) Bearing (mag) Slope Elevation
08 Localiser IAP 109.90 MHz 18 nm / 33 km 89.50° 77.83° - 9 ft / 3 m (AMSL)
08 Glidescope IAP 109.90 MHz 10 nm / 19 km 89.30° 77.63° 3.00° 58 ft / 18 m (AMSL)
08 DME IAP 109.90 MHz 18 nm / 33 km - - - 58 ft / 18 m (AMSL)

Popular Alternatives